Accueil
METAR-TAF:

METAR-TAF

Aéroports :

Le Mans, France

Aéroport Le Mans-Arnage

latitude: 47-56N, longitude: 000-12E, altitude: 59 m

Observation

Le bulletin a été fait il y a 33 minutes, à 23:30 UTC
Vent 4 kt de ouest/sud-ouest, variant entre sud-ouest et ouest
Température 23°C
Humidité 65%
Pression 1014 hPa
Visibilité 10 km ou plus
pas de nuages en-dessous de 1500 mètres et pas de cumulonimbus.

METAR: LFRM 282330Z AUTO 25004KT 220V280 CAVOK 23/16 Q1014

Heure: 02:03 (00:03 UTC)

Prévision

Le bulletin a été fait il y a 7 heures et 3 minutes, à 17:00 UTC
Prévision valable du 28 à 18 UTC au 29 à 03 UTC
Vent 4 kt de direction variable
Visibilité 10 km ou plus
Nuages épars à une hauteur de 4000 ft

TAF: LFRM 281700Z 2818/2903 VRB04KT 9999 SCT040

Observations et prévisions météorologiques de plus de 4000 aéroports (messages METAR et TAF).

Les stations disponibles sont représentées par des disques jaunes et rouges sur la carte.

Passer la souris dessus pour voir le nom de la station.

Cliquer dessus pour voir les observations et prévisions météorologiques.

Pour changer de carte: cliquez sur les boutons verts avec une croix noire pour zoomer, sur le bouton vert avec un tiret pour effectuer un zoom arrière, ou sur les flèches vertes pour les cartes adjacentes.


METAR-TAF: